Latest Coastal Weather Observations for Albion Park

IDN60701

Issued at 1:31 pm EDT Monday 30 March 2015 (issued every 10 minutes, with the page automatically refreshed every 10 minutes)

About coastal observations | Map of coastal stations | Coastal observations for NSW | Marine services | Other Formats
Station Details ID: 068241 Name: WOLLONGONG AIRPORT Lat: -34.56 Lon: 150.79 Height: 8.0 m
Data from the previous 72 hours. | See also: Recent months at Albion Park
Date/Time
EDT
Temp

°C
Wind Pressure Rain
since 9am
mm
Weather Cloud Vis
km
Sea
Height
m
Swell
Dir
 
Speed
knots
Gust
knots
hPa Trend Height
m
Period
s
Dir
30/01:30pm 21.9 SSW 3 5 1023.7 - 0.0 - Partly cloudy 10 - - - -
30/01:29pm 21.8 S 3 5 1023.7 - 0.0 - Partly cloudy 10 - - - -
30/01:00pm 21.4 SE 5 8 1024.1 - 0.0 - Cloudy 10 - - - -
30/12:30pm 21.0 ENE 5 6 1024.4 - 0.0 - Partly cloudy 10 - - - -
30/12:00pm 20.9 N 3 5 1024.7 - 0.0 - Cloudy 10 - - - -
30/11:30am 20.4 N 6 8 1024.8 - 0.0 - Partly cloudy 10 - - - -
30/11:21am 20.3 NNE 6 7 1024.7 - 0.0 - Partly cloudy 10 - - - -
30/11:20am 20.2 NNE 6 7 1024.7 - 0.0 - Partly cloudy 10 - - - -
30/11:00am 20.1 NW 3 7 1024.4 - 0.0 - - 10 - - - -
30/10:30am 19.6 SW 3 4 1024.5 - 0.0 - - 10 - - - -
30/10:00am 18.9 SW 3 3 1024.7 - 0.0 - - 10 - - - -
30/09:30am 18.2 WSW 3 5 1024.7 - 0.0 - Partly cloudy 10 - - - -
30/09:00am 17.5 NW 2 3 1024.7 - 0.0 - Partly cloudy 10 - - - -
30/08:38am 16.8 NNW 3 4 1024.5 - 0.0 - Partly cloudy 10 - - - -
30/08:30am 16.5 NNW 1 4 1024.5 - 0.0 - Partly cloudy 10 - - - -
30/08:28am 16.5 CALM 0 3 1024.5 - 0.0 - Partly cloudy 10 - - - -
30/08:00am 16.1 CALM 0 0 1024.2 - 0.0 - Cloudy 10 - - - -
30/07:30am 15.5 CALM 0 3 1023.9 - 0.0 - Partly cloudy 10 - - - -
30/07:29am 15.4 W 1 3 1023.9 - 0.0 - Partly cloudy 10 - - - -
30/07:00am 15.1 CALM 0 0 1023.5 - 0.0 - Partly cloudy 10 - - - -
30/06:30am 14.9 CALM 0 0 1023.1 - 0.0 - - 10 - - - -
30/06:00am 14.9 W 1 4 1022.7 - 0.0 - Cloudy 10 - - - -
30/05:30am 14.4 CALM 0 0 1022.5 - 0.0 - - 10 - - - -
30/05:00am 14.7 CALM 0 0 1022.2 - 0.0 - - 10 - - - -
30/04:30am 14.7 W 4 5 1022.0 - 0.0 - - 10 - - - -
30/04:00am 14.3 W 4 5 1022.0 - 0.0 - - 10 - - - -
30/03:30am 14.3 W 4 4 1022.2 - 0.0 - - 10 - - - -
30/03:00am 13.5 W 4 5 1022.3 - 0.0 - - 10 - - - -
30/02:30am 14.3 W 4 4 1022.5 - 0.0 - - 10 - - - -
30/02:00am 14.4 W 3 5 1022.8 - 0.0 - - 10 - - - -
30/01:30am 14.0 W 4 5 1023.0 - 0.0 - - 10 - - - -
30/01:00am 14.1 CALM 0 0 1023.1 - 0.0 - - 10 - - - -
30/12:30am 14.4 CALM 0 0 1023.3 - 0.0 - - 10 - - - -
30/12:00am 14.5 W 4 5 1023.4 - 0.0 - - 10 - - - -
 
Date/Time
EDT
Temp

°C
Wind Pressure Rain
since 9am
mm
Weather Cloud Vis
km
Sea
Height
m
Swell
Dir
 
Speed
knots
Gust
knots
hPa Trend Height
m
Period
s
Dir
29/11:30pm 14.8 CALM 0 0 1023.5 - 0.0 - - 10 - - - -
29/11:00pm 15.4 CALM 0 4 1023.6 - 0.0 - - 10 - - - -
29/10:30pm 15.7 W 4 6 1023.5 - 0.0 - - 10 - - - -
29/10:00pm 16.2 WNW 6 8 1023.3 - 0.0 - - 10 - - - -
29/09:30pm 16.8 W 5 6 1022.7 - 0.0 - - 10 - - - -
29/09:00pm 16.7 W 6 7 1022.4 - 0.0 - - 10 - - - -
29/08:30pm 17.6 W 2 3 1022.3 - 0.0 - - 10 - - - -
29/08:00pm 18.4 W 3 4 1021.9 - 0.0 - - 10 - - - -
29/07:30pm 19.3 WNW 4 6 1021.5 - 0.0 - - 10 - - - -
29/07:00pm 21.5 N 5 8 1021.1 - 0.0 - - 10 - - - -
29/06:30pm 21.8 NE 6 9 1021.0 - 0.0 - - 10 - - - -
29/06:00pm 21.9 NE 7 10 1020.9 - 0.0 - Partly cloudy 10 - - - -
29/05:30pm 22.1 NE 8 11 1020.6 - 0.0 - - 10 - - - -
29/05:00pm 22.8 NE 8 14 1020.7 - 0.0 - - 10 - - - -
29/04:30pm 22.5 NE 9 14 1020.7 - 0.0 - - 10 - - - -
29/04:00pm 23.2 ENE 10 13 1020.6 - 0.0 - - 10 - - - -
29/03:30pm 23.1 ENE 11 14 1020.5 - 0.0 - - 10 - - - -
29/03:00pm 23.3 ENE 12 15 1020.5 - 0.0 - - 10 - - - -
29/02:30pm 23.4 NE 13 17 1020.8 - 0.0 - - 10 - - - -
29/02:00pm 24.2 NE 14 18 1020.9 - 0.0 - - 10 - - - -
29/01:30pm 24.2 NE 13 16 1021.1 - 0.0 - - 10 - - - -
29/01:00pm 24.5 ENE 11 14 1021.5 - 0.0 - - 10 - - - -
29/12:30pm 24.0 ENE 9 15 1022.0 - 0.0 - - 10 - - - -
29/12:00pm 24.2 NE 6 9 1022.3 - 0.0 - - 10 - - - -
29/11:30am 23.2 NNW 9 13 1022.6 - 0.0 - - 10 - - - -
29/11:00am 22.4 NNE 8 14 1023.0 - 0.0 - - 10 - - - -
29/10:30am 22.2 N 8 11 1023.3 - 0.0 - - 10 - - - -
29/10:00am 20.9 N 7 10 1023.3 - 0.0 - - 10 - - - -
29/09:30am 19.3 SSW 1 5 1023.4 - 0.0 - - 10 - - - -
29/09:00am 16.2 CALM 0 3 1023.3 - 0.0 - - 10 - - - -
29/08:30am 13.8 SSW 1 4 1023.0 - 0.0 - - 10 - - - -
29/08:00am 11.7 CALM 0 0 1022.8 - 0.0 - - 10 - - - -
29/07:30am 10.5 SW 3 4 1022.7 - 0.0 - - 10 - - - -
29/07:00am 10.5 SW 3 4 1022.5 - 0.0 - - 10 - - - -
29/06:30am 10.6 SW 3 3 1022.3 - 0.0 - - 10 - - - -
29/06:00am 10.3 CALM 0 0 1022.0 - 0.0 - Mostly cloudy 10 - - - -
29/05:30am 10.3 CALM 0 0 1021.8 - 0.0 - - 10 - - - -
29/05:00am 9.9 CALM 0 0 1021.9 - 0.0 - - 10 - - - -
29/04:30am 10.6 CALM 0 0 1021.9 - 0.0 - - 10 - - - -
29/04:00am 10.9 CALM 0 0 1022.1 - 0.0 - - 10 - - - -
29/03:30am 10.9 CALM 0 0 1022.2 - 0.0 - - 10 - - - -
29/03:00am 11.3 CALM 0 3 1022.5 - 0.0 - - 10 - - - -
29/02:30am 11.2 SW 4 5 1022.7 - 0.0 - - 10 - - - -
29/02:00am 11.2 SW 4 4 1022.9 - 0.0 - - 10 - - - -
29/01:30am 11.7 CALM 0 0 1023.3 - 0.0 - - 10 - - - -
29/01:00am 12.2 SW 6 7 1023.5 - 0.0 - - 10 - - - -
29/12:30am 11.9 SW 1 4 1023.4 - 0.0 - - 10 - - - -
29/12:00am 12.3 SW 5 6 1023.6 - 0.0 - Mostly clear 10 - - - -
 
Date/Time
EDT
Temp

°C
Wind Pressure Rain
since 9am
mm
Weather Cloud Vis
km
Sea
Height
m
Swell
Dir
 
Speed
knots
Gust
knots
hPa Trend Height
m
Period
s
Dir
28/11:30pm 12.4 SW 2 4 1023.6 - 0.0 - Partly cloudy 10 - - - -
28/11:00pm 12.6 SW 1 4 1024.0 - 0.0 - - 10 - - - -
28/10:30pm 12.9 SW 6 7 1024.2 - 0.0 - - 10 - - - -
28/10:00pm 13.2 SW 1 3 1024.0 - 0.0 - - 10 - - - -
28/09:30pm 13.5 SSW 6 7 1024.0 - 0.0 - - 10 - - - -
28/09:00pm 14.0 SSW 6 6 1023.7 - 0.0 - - 10 - - - -
28/08:30pm 15.0 SSW 4 6 1023.4 - 0.0 - - 10 - - - -
28/08:00pm 16.1 S 5 6 1023.2 - 0.0 - Partly cloudy 10 - - - -
28/07:30pm 17.4 CALM 0 0 1023.0 - 0.0 - Partly cloudy 10 - - - -
28/07:00pm 18.6 SE 2 4 1022.7 - 0.0 - Cloudy 10 - - - -
28/06:30pm 18.9 SSE 5 7 1022.5 - 0.0 - Partly cloudy 10 - - - -
28/06:00pm 19.2 ESE 5 8 1022.3 - 0.0 - Partly cloudy 10 - - - -
28/05:30pm 19.7 ESE 6 8 1022.2 - 0.0 - Cloudy 10 - - - -
28/05:00pm 20.5 ESE 7 13 1022.1 - 0.0 - Cloudy 10 - - - -
28/04:30pm 20.3 SE 7 9 1022.0 - 0.0 - Partly cloudy 10 - - - -
28/04:00pm 20.6 E 9 13 1022.0 - 0.0 - Partly cloudy 10 - - - -
28/03:30pm 20.7 ESE 8 13 1022.2 - 0.0 - Partly cloudy 10 - - - -
28/03:00pm 21.4 E 9 14 1022.2 - 0.0 - Partly cloudy 10 - - - -
28/02:30pm 20.8 ESE 9 14 1022.4 - 0.0 - Partly cloudy 10 - - - -
28/02:00pm 21.7 ESE 10 15 1022.6 - 0.0 - Partly cloudy 10 - - - -
28/01:30pm 21.5 E 11 16 1022.7 - 0.0 - Partly cloudy 10 - - - -
28/01:00pm 21.4 ESE 10 13 1023.1 - 0.0 - Partly cloudy 10 - - - -
28/12:30pm 21.8 ESE 8 11 1023.4 - 0.0 - Partly cloudy 10 - - - -
28/12:00pm 22.3 E 5 10 1023.5 - 0.0 - Mostly clear 10 - - - -
28/11:30am 21.2 ESE 6 9 1023.6 - 0.0 - - 10 - - - -
28/11:00am 21.0 S 6 9 1023.6 - 0.0 - - 10 - - - -
28/10:30am 20.6 SSW 7 10 1023.6 - 0.0 - - 10 - - - -
28/10:00am 20.2 SSE 4 6 1023.5 - 0.0 - - 10 - - - -
28/09:30am 19.1 WNW 4 7 1023.5 - 0.0 - - 10 - - - -
28/09:00am 17.0 WNW 5 6 1023.3 - 0.0 - - 10 - - - -
28/08:30am 14.2 CALM 0 4 1023.0 - 0.0 - - 10 - - - -
28/08:00am 11.9 S 1 3 1022.6 - 0.0 - - 10 - - - -
28/07:30am 9.4 CALM 0 3 1022.3 - 0.0 - - 10 - - - -
28/07:00am 9.4 W 1 5 1021.9 - 0.0 - - 10 - - - -
28/06:30am 10.5 CALM 0 3 1021.6 - 0.0 - - 10 - - - -
28/06:00am 9.8 W 1 4 1021.2 - 0.0 - - 10 - - - -
28/05:30am 10.7 CALM 0 0 1020.8 - 0.0 - - 10 - - - -
28/05:00am 11.2 W 2 4 1020.3 - 0.0 - - 10 - - - -
28/04:30am 12.1 W 3 4 1020.2 - 0.0 - - 10 - - - -
28/04:00am 15.0 WSW 5 7 1020.0 - 0.0 - - 10 - - - -
28/03:30am 14.9 SSW 5 8 1020.1 - 0.0 - - 10 - - - -
28/03:00am 15.6 SW 8 13 1020.2 - 0.0 - - 10 - - - -
28/02:30am 16.5 W 12 16 1020.3 - 0.0 - - 10 - - - -
28/02:00am 16.6 WSW 11 14 1020.2 - 0.0 - - 10 - - - -
28/01:30am 17.1 W 13 18 1020.2 - 0.0 - - 10 - - - -
28/01:00am 17.2 WNW 11 15 1020.3 - 0.0 - - 10 - - - -
28/12:30am 16.5 WNW 9 11 1020.4 - 0.0 - - 10 - - - -
28/12:00am 17.5 WNW 12 15 1020.3 - 0.0 - - 10 - - - -
 
Date/Time
EDT
Temp

°C
Wind Pressure Rain
since 9am
mm
Weather Cloud Vis
km
Sea
Height
m
Swell
Dir
 
Speed
knots
Gust
knots
hPa Trend Height
m
Period
s
Dir
27/11:30pm 17.5 WNW 13 16 1020.3 - 0.0 - - 10 - - - -
27/11:00pm 17.5 W 13 17 1020.2 - 0.0 - - 10 - - - -
27/10:30pm 16.7 W 10 12 1020.1 - 0.0 - - 10 - - - -
27/10:00pm 16.9 W 10 12 1020.0 - 0.0 - - 10 - - - -
27/09:30pm 17.9 W 9 13 1019.8 - 0.0 - - 10 - - - -
27/09:00pm 17.4 W 4 8 1019.5 - 0.0 - - 10 - - - -
27/08:30pm 18.3 WNW 7 11 1019.1 - 0.0 - - 10 - - - -
27/08:00pm 18.8 W 11 15 1018.6 - 0.0 - - 10 - - - -
27/07:30pm 19.2 W 12 16 1018.0 - 0.0 - - 10 - - - -
27/07:00pm 20.7 W 15 19 1017.5 - 0.0 - - 10 - - - -
27/06:30pm 21.6 W 16 22 1017.3 - 0.0 - - 10 - - - -
27/06:04pm 22.5 W 15 25 1017.0 - 0.0 - - 10 - - - -
27/06:03pm 22.5 W 15 25 1017.0 - 0.0 - - 10 - - - -
27/06:00pm 22.6 W 14 19 1017.1 - 0.0 - - 10 - - - -
27/05:30pm 23.3 W 16 24 1016.6 - 0.0 - - 10 - - - -
27/05:00pm 23.8 W 15 20 1016.5 - 0.0 - - 10 - - - -
27/04:30pm 24.3 W 15 22 1016.4 - 0.0 - - 10 - - - -
27/04:00pm 24.1 WSW 15 22 1016.7 - 0.0 - - 10 - - - -
27/03:30pm 24.0 WSW 16 24 1016.8 - 0.0 - - 10 - - - -
27/03:20pm 24.0 WSW 18 28 1016.8 - 0.0 - - 10 - - - -
27/03:00pm 24.1 W 15 21 1016.9 - 0.0 - - 10 - - - -
27/02:30pm 23.6 W 16 24 1017.0 - 0.0 - - 10 - - - -
27/02:00pm 23.9 W 16 22 1017.6 - 0.0 - - 10 - - - -
27/01:32pm 23.4 W 17 27 1017.9 - 0.0 - - 10 - - - -

Other Formats:

Comma delimited format used in spreadsheet applications
http://www.bom.gov.au/fwo/IDN60701/IDN60701.95748.axf

JavaScript Object Notation format (JSON) in row-major order
http://www.bom.gov.au/fwo/IDN60701/IDN60701.95748.json